Faringdon, United Kingdom
Current Conditions -  °F | °C
As of 11:50 AM on Tuesday 21 Oct 2014 (Local Time) from EGVN Reporting Station
Broken Clouds Broken Clouds  
Wind Chill: 12°   Ceiling: 3800
Heat Index: 12°   Visibility: 6mi
Dew Point:   Wind: 18mph
Humidity: 58%   Direction: 280°W
Pressure: 29.71"   Gusts: 30mph
Location:  51.66°N, 1.59°W
Report Text: EGVN 211050Z 28016G26KT 9999 BKN038 12/04 Q1006 BLU TEMPO 5000 SHRA WHT
Loading
Personal Weather Stations






























Interactive Weather Map
Tropical Storm Tracking
New forecast layout! Learn more

10-Day Weather Forecast

Advertisements
Track Severe Weather on mobile